Time;durP1;ratioP1;P1;durP2;ratioP2;P2;SDS_P1;SDS_P2;PMS_P1;PMS_P2;Temp;Humidity;BMP_temperature;BMP_pressure;BME280_temperature;BME280_humidity;BME280_pressure;Samples;Min_cycle;Max_cycle;Signal;HPM_P1;HPM_P2
2022/05/30 00:00:09;;;;;;;5.75;2.30;;;15.10;84.60;;;;;;5002169;28;20034;-70
2022/05/30 00:02:35;;;;;;;3.90;1.80;;;15.00;84.80;;;;;;4997737;28;20092;-70
2022/05/30 00:05:01;;;;;;;4.05;2.17;;;15.00;84.90;;;;;;5007536;28;20026;-70
2022/05/30 00:07:27;;;;;;;3.33;1.77;;;15.00;85.30;;;;;;5008959;28;20040;-70
2022/05/30 00:09:54;;;;;;;5.00;2.22;;;15.00;85.60;;;;;;5002480;28;20133;-70
2022/05/30 00:12:20;;;;;;;3.33;2.03;;;15.00;85.60;;;;;;5012653;28;21915;-71
2022/05/30 00:14:45;;;;;;;2.70;1.70;;;15.00;85.80;;;;;;5004270;28;20108;-70
2022/05/30 00:17:11;;;;;;;4.07;2.10;;;15.00;85.60;;;;;;4995080;28;20030;-69
2022/05/30 00:19:38;;;;;;;3.35;2.00;;;15.00;85.80;;;;;;5012896;28;20036;-70
2022/05/30 00:22:05;;;;;;;4.10;2.10;;;14.90;86.00;;;;;;5011939;28;20041;-71
2022/05/30 00:24:32;;;;;;;4.72;2.10;;;14.90;86.20;;;;;;5013287;28;20088;-70
2022/05/30 00:26:57;;;;;;;2.90;1.80;;;14.90;86.50;;;;;;5007615;28;20042;-71
2022/05/30 00:29:23;;;;;;;3.05;2.20;;;14.90;86.60;;;;;;5012296;28;20553;-70
2022/05/30 00:31:49;;;;;;;4.55;2.08;;;14.80;86.80;;;;;;5011299;28;20026;-71
2022/05/30 00:34:14;;;;;;;5.18;2.10;;;14.80;87.00;;;;;;5010834;28;20483;-70
2022/05/30 00:36:40;;;;;;;3.42;2.10;;;14.80;87.20;;;;;;5008573;28;20050;-70
2022/05/30 00:39:05;;;;;;;4.57;2.03;;;14.80;87.30;;;;;;5028271;28;20034;-71
2022/05/30 00:41:31;;;;;;;5.05;2.20;;;14.80;87.70;;;;;;5025265;28;20556;-71
2022/05/30 00:43:56;;;;;;;2.85;1.83;;;14.80;87.70;;;;;;5024080;28;20002;-70
2022/05/30 00:46:22;;;;;;;4.57;2.00;;;14.80;87.70;;;;;;5024695;28;20075;-70
2022/05/30 00:48:57;;;;;;;2.88;2.00;;;14.90;87.90;;;;;;5025152;28;20064;-69
2022/05/30 00:51:31;;;;;;;3.33;1.75;;;14.90;88.00;;;;;;5016717;28;20064;-69
2022/05/30 00:53:58;;;;;;;2.53;1.80;;;14.90;88.20;;;;;;5017547;28;20030;-69
2022/05/30 00:56:33;;;;;;;4.40;2.15;;;14.90;88.10;;;;;;5020668;28;20105;-70
2022/05/30 00:59:00;;;;;;;5.40;2.35;;;14.90;88.20;;;;;;5006426;28;20109;-70
2022/05/30 01:01:26;;;;;;;5.22;2.00;;;14.90;88.40;;;;;;5006074;28;20038;-69
2022/05/30 01:06:43;;;;;;;2.83;1.88;;;15.00;88.70;;;;;;4994174;28;20038;-69
2022/05/30 01:09:16;;;;;;;3.30;2.05;;;15.10;88.50;;;;;;4997527;28;20054;-70
2022/05/30 01:11:55;;;;;;;3.08;1.80;;;15.10;88.60;;;;;;5000202;28;20022;-69
2022/05/30 01:14:23;;;;;;;2.65;1.67;;;15.10;88.40;;;;;;5009641;28;20173;-69
2022/05/30 01:16:49;;;;;;;3.85;1.98;;;15.10;88.40;;;;;;5011369;28;20029;-69
2022/05/30 01:19:37;;;;;;;3.78;2.08;;;15.10;88.30;;;;;;5008916;28;20030;-70
2022/05/30 01:22:21;;;;;;;2.67;1.90;;;15.10;88.60;;;;;;5010292;28;20033;-69
2022/05/30 01:25:12;;;;;;;2.50;1.60;;;15.10;88.30;;;;;;4997520;28;20064;-70
2022/05/30 01:27:56;;;;;;;2.95;1.58;;;15.10;88.50;;;;;;4992576;28;20030;-69
2022/05/30 01:30:22;;;;;;;4.30;1.98;;;15.10;88.40;;;;;;5008556;28;20492;-70
2022/05/30 01:32:48;;;;;;;1.98;1.50;;;15.10;88.60;;;;;;5015182;28;20116;-70
2022/05/30 01:35:22;;;;;;;3.13;1.80;;;15.20;88.80;;;;;;5000160;28;20061;-70
2022/05/30 01:37:48;;;;;;;2.55;1.70;;;15.20;89.30;;;;;;4997057;28;20033;-70
2022/05/30 01:40:14;;;;;;;2.72;2.00;;;15.20;89.10;;;;;;5000561;28;20038;-70
2022/05/30 01:42:39;;;;;;;3.40;2.20;;;15.20;89.30;;;;;;5010230;28;20052;-70
2022/05/30 01:45:06;;;;;;;4.38;2.30;;;15.20;89.50;;;;;;4999878;28;20113;-69
2022/05/30 01:47:31;;;;;;;3.70;1.95;;;15.20;89.70;;;;;;5002619;28;20484;-69
2022/05/30 01:49:57;;;;;;;3.03;2.05;;;15.20;89.90;;;;;;5009847;28;20029;-70
2022/05/30 01:52:22;;;;;;;3.33;2.03;;;15.20;90.00;;;;;;5009359;28;20394;-70
2022/05/30 01:54:48;;;;;;;3.58;2.00;;;15.20;90.10;;;;;;5011101;28;20014;-69
2022/05/30 01:57:13;;;;;;;3.97;2.10;;;15.20;90.20;;;;;;5008374;28;20144;-69
2022/05/30 01:59:39;;;;;;;3.03;2.17;;;15.20;90.20;;;;;;5011330;28;20381;-69
2022/05/30 02:02:04;;;;;;;4.90;2.20;;;15.20;90.30;;;;;;5008578;28;20033;-70
2022/05/30 02:04:30;;;;;;;2.88;2.10;;;15.20;90.30;;;;;;5010856;28;20199;-69
2022/05/30 02:06:55;;;;;;;5.47;2.45;;;15.20;90.40;;;;;;5005813;28;20030;-69
2022/05/30 02:09:22;;;;;;;4.97;2.42;;;15.20;90.40;;;;;;4968010;28;1232028;-70
2022/05/30 02:11:48;;;;;;;3.45;2.40;;;15.20;90.40;;;;;;4995321;28;20030;-69
2022/05/30 02:14:13;;;;;;;3.33;2.53;;;15.10;90.40;;;;;;4992470;28;20039;-69
2022/05/30 02:19:23;;;;;;;2.90;2.08;;;15.00;90.50;;;;;;4991549;28;20406;-69
2022/05/30 02:21:48;;;;;;;3.05;1.95;;;15.00;90.50;;;;;;4991795;28;20056;-69
2022/05/30 02:24:15;;;;;;;3.13;2.08;;;15.00;90.50;;;;;;5011125;28;20034;-69
2022/05/30 02:26:41;;;;;;;6.28;2.65;;;14.90;90.70;;;;;;4996691;28;20029;-69
2022/05/30 02:29:06;;;;;;;4.82;2.47;;;14.90;91.00;;;;;;4998978;28;20046;-69
2022/05/30 02:31:32;;;;;;;5.53;2.58;;;14.90;90.70;;;;;;4991513;28;20124;-69
2022/05/30 02:36:44;;;;;;;5.60;2.25;;;14.80;90.80;;;;;;5008540;28;20103;-69
2022/05/30 02:39:15;;;;;;;4.05;2.20;;;14.80;90.80;;;;;;5010788;28;20030;-69
2022/05/30 02:41:41;;;;;;;4.65;2.70;;;14.80;91.20;;;;;;5009345;28;20033;-69
2022/05/30 02:44:08;;;;;;;4.32;2.60;;;14.70;91.10;;;;;;5008768;28;20034;-69
2022/05/30 02:46:33;;;;;;;4.40;2.70;;;14.70;91.20;;;;;;5003791;28;20041;-69
2022/05/30 02:48:59;;;;;;;6.32;2.83;;;14.70;91.30;;;;;;5008803;28;20037;-69
2022/05/30 02:51:25;;;;;;;3.58;2.60;;;14.60;91.40;;;;;;5000335;28;20022;-69
2022/05/30 02:53:50;;;;;;;5.20;2.90;;;14.50;91.50;;;;;;4992113;28;20030;-69
2022/05/30 02:56:17;;;;;;;3.80;2.67;;;14.50;91.70;;;;;;4991307;28;20027;-69
2022/05/30 02:58:46;;;;;;;4.72;2.78;;;14.40;91.80;;;;;;5005512;28;20033;-69
2022/05/30 03:01:13;;;;;;;3.88;2.88;;;14.40;91.90;;;;;;4998997;28;20903;-69
2022/05/30 03:03:39;;;;;;;5.80;3.00;;;14.40;92.10;;;;;;5004790;28;20033;-69
2022/05/30 03:06:05;;;;;;;4.22;2.97;;;14.30;92.30;;;;;;4992380;28;20030;-69
2022/05/30 03:08:30;;;;;;;3.85;2.72;;;14.30;92.40;;;;;;5008502;28;20042;-69
2022/05/30 03:10:56;;;;;;;4.20;2.92;;;14.30;92.50;;;;;;4994710;28;20065;-69
2022/05/30 03:13:22;;;;;;;3.83;2.88;;;14.30;92.50;;;;;;5006356;28;20045;-69
2022/05/30 03:15:47;;;;;;;5.30;3.50;;;14.20;92.60;;;;;;4994889;28;20761;-69
2022/05/30 03:18:13;;;;;;;4.60;3.15;;;14.20;92.70;;;;;;5002275;28;20025;-69
2022/05/30 03:20:38;;;;;;;5.55;3.60;;;14.20;92.80;;;;;;5014581;28;20543;-69
2022/05/30 03:23:05;;;;;;;4.72;3.45;;;14.20;92.80;;;;;;5012108;28;20041;-69
2022/05/30 03:25:31;;;;;;;7.45;3.30;;;14.20;92.90;;;;;;5009334;28;20030;-69
2022/05/30 03:27:56;;;;;;;6.35;3.55;;;14.20;93.00;;;;;;5006106;28;20096;-69
2022/05/30 03:30:23;;;;;;;5.45;3.17;;;14.20;93.10;;;;;;5001451;28;20046;-69
2022/05/30 03:32:49;;;;;;;4.45;3.00;;;14.10;93.20;;;;;;4994813;28;20023;-70
2022/05/30 03:35:16;;;;;;;5.53;3.33;;;14.10;93.30;;;;;;4995027;28;20452;-70
2022/05/30 03:37:42;;;;;;;4.97;3.38;;;14.10;93.40;;;;;;4998214;28;20120;-73
2022/05/30 03:40:11;;;;;;;5.60;3.55;;;14.10;93.40;;;;;;5005804;28;20034;-70
2022/05/30 03:42:36;;;;;;;5.05;3.53;;;14.10;93.50;;;;;;5012001;28;20041;-71
2022/05/30 03:45:04;;;;;;;8.32;3.33;;;14.10;93.60;;;;;;5014140;28;20405;-69
2022/05/30 03:47:38;;;;;;;6.32;4.20;;;14.10;93.70;;;;;;5009850;28;20034;-70
2022/05/30 03:50:05;;;;;;;5.72;3.78;;;14.10;93.70;;;;;;5013987;28;20022;-68
2022/05/30 03:52:30;;;;;;;6.40;3.47;;;14.10;93.70;;;;;;5009345;28;20091;-69
2022/05/30 03:54:56;;;;;;;5.25;3.00;;;14.10;93.70;;;;;;5010285;28;20022;-69
2022/05/30 03:57:21;;;;;;;4.15;3.20;;;14.10;93.80;;;;;;5001111;28;20421;-69
2022/05/30 03:59:47;;;;;;;5.18;3.40;;;14.20;93.80;;;;;;5013095;28;20025;-69
2022/05/30 04:02:13;;;;;;;4.80;3.83;;;14.20;93.80;;;;;;4993996;28;20029;-69
2022/05/30 04:04:38;;;;;;;5.82;3.38;;;14.30;93.80;;;;;;4994444;28;20026;-69
2022/05/30 04:07:04;;;;;;;5.00;3.80;;;14.30;93.90;;;;;;5008144;28;20056;-70
2022/05/30 04:09:30;;;;;;;6.80;4.63;;;14.30;94.00;;;;;;4992780;28;20059;-71
2022/05/30 04:11:55;;;;;;;7.22;5.07;;;14.20;94.00;;;;;;5008322;28;20041;-70
2022/05/30 04:14:21;;;;;;;7.68;5.47;;;14.30;94.00;;;;;;4993933;28;20061;-70
2022/05/30 04:16:46;;;;;;;6.75;5.22;;;14.30;94.10;;;;;;4994065;28;20533;-70
2022/05/30 04:19:12;;;;;;;5.32;4.43;;;14.30;94.10;;;;;;5012334;28;20113;-70
2022/05/30 04:21:38;;;;;;;9.00;4.90;;;14.40;94.20;;;;;;4995017;28;20513;-70
2022/05/30 04:24:04;;;;;;;8.88;5.07;;;14.40;94.30;;;;;;5012001;28;20061;-69
2022/05/30 04:26:30;;;;;;;7.65;4.80;;;14.40;94.30;;;;;;4995901;28;20042;-69
2022/05/30 04:28:55;;;;;;;5.90;4.93;;;14.40;94.40;;;;;;5007912;28;20049;-69
2022/05/30 04:31:20;;;;;;;6.30;4.55;;;14.40;94.50;;;;;;4993499;28;20023;-69
2022/05/30 04:33:46;;;;;;;9.73;5.20;;;14.50;94.60;;;;;;5007222;28;20030;-71
2022/05/30 04:36:13;;;;;;;9.60;5.32;;;14.50;94.60;;;;;;5011450;28;20126;-69
2022/05/30 04:38:39;;;;;;;7.38;4.90;;;14.50;94.60;;;;;;4999385;28;20030;-69
2022/05/30 04:41:04;;;;;;;8.45;4.68;;;14.50;94.50;;;;;;5002241;28;20025;-70
2022/05/30 04:43:30;;;;;;;7.38;4.28;;;14.60;94.60;;;;;;5001005;28;20042;-67
2022/05/30 04:46:10;;;;;;;8.20;4.80;;;14.60;94.60;;;;;;4993336;28;20489;-68
2022/05/30 04:48:36;;;;;;;6.82;4.20;;;14.60;94.60;;;;;;5000412;28;20049;-68
2022/05/30 04:51:02;;;;;;;8.07;4.60;;;14.70;94.70;;;;;;5012733;28;20389;-68
2022/05/30 04:53:27;;;;;;;13.82;4.25;;;14.70;94.80;;;;;;5009099;28;20053;-68
2022/05/30 04:55:53;;;;;;;10.10;4.80;;;14.80;94.60;;;;;;5012824;28;20026;-68
2022/05/30 04:58:18;;;;;;;7.40;4.18;;;14.70;94.50;;;;;;4998792;28;20134;-68
2022/05/30 05:00:44;;;;;;;8.65;4.60;;;14.80;94.50;;;;;;4993262;28;20022;-68
2022/05/30 05:03:09;;;;;;;6.13;4.30;;;14.80;94.50;;;;;;4991538;28;20482;-67
2022/05/30 05:05:35;;;;;;;11.80;4.90;;;14.80;94.40;;;;;;4993188;28;20109;-66
2022/05/30 05:08:26;;;;;;;8.15;4.28;;;14.90;94.40;;;;;;5002203;28;20038;-68
2022/05/30 05:11:17;;;;;;;9.35;3.97;;;14.90;94.40;;;;;;5000140;28;20088;-68
2022/05/30 05:13:43;;;;;;;6.63;4.28;;;15.00;94.40;;;;;;5007612;28;20389;-69
2022/05/30 05:16:09;;;;;;;9.10;3.40;;;15.00;94.40;;;;;;4992819;28;20023;-68
2022/05/30 05:18:35;;;;;;;6.35;3.35;;;15.10;94.20;;;;;;5006563;28;20424;-68
2022/05/30 05:21:00;;;;;;;12.00;4.57;;;15.10;94.00;;;;;;5000218;28;20117;-68
2022/05/30 05:23:26;;;;;;;6.32;2.88;;;15.00;93.60;;;;;;4998831;28;20410;-68
2022/05/30 05:25:52;;;;;;;11.02;3.25;;;15.00;93.60;;;;;;4992761;28;20029;-69
2022/05/30 05:28:17;;;;;;;6.88;3.55;;;15.10;93.50;;;;;;5000151;28;20092;-69
2022/05/30 05:30:43;;;;;;;9.70;3.20;;;15.10;93.50;;;;;;5010637;28;20474;-69
2022/05/30 05:33:10;;;;;;;10.77;3.63;;;15.10;93.50;;;;;;5006324;28;20018;-68
2022/05/30 05:35:44;;;;;;;6.35;3.40;;;15.10;93.40;;;;;;4992498;28;20026;-67
2022/05/30 05:38:10;;;;;;;9.43;3.58;;;15.20;93.50;;;;;;4999934;28;20486;-68
2022/05/30 05:40:40;;;;;;;6.47;3.50;;;15.20;93.50;;;;;;4992378;28;20058;-68
2022/05/30 05:43:07;;;;;;;7.32;3.35;;;15.20;93.50;;;;;;5003001;28;20038;-69
2022/05/30 05:45:34;;;;;;;6.50;3.42;;;15.20;93.60;;;;;;5010039;28;20101;-69
2022/05/30 05:47:59;;;;;;;6.63;3.60;;;15.30;93.40;;;;;;4998739;28;20037;-69
2022/05/30 05:50:25;;;;;;;11.10;4.22;;;15.30;93.50;;;;;;4992241;28;20363;-69
2022/05/30 05:52:53;;;;;;;8.80;3.67;;;15.30;93.20;;;;;;4994663;28;20018;-70
2022/05/30 05:55:19;;;;;;;9.32;3.20;;;15.40;93.20;;;;;;4995948;28;20033;-71
2022/05/30 05:57:44;;;;;;;7.88;3.80;;;15.40;93.20;;;;;;5004046;28;20025;-69
2022/05/30 06:00:11;;;;;;;5.85;3.08;;;15.40;93.20;;;;;;5004025;28;20054;-68
2022/05/30 06:02:38;;;;;;;9.13;3.45;;;15.50;93.20;;;;;;4993822;28;20072;-68
2022/05/30 06:05:04;;;;;;;12.32;3.28;;;15.50;93.00;;;;;;4992031;28;20034;-68
2022/05/30 06:07:32;;;;;;;7.43;3.75;;;15.60;93.00;;;;;;5000677;28;20349;-68
2022/05/30 06:09:57;;;;;;;10.10;3.95;;;15.50;93.00;;;;;;5000392;28;20152;-68
2022/05/30 06:12:23;;;;;;;6.22;3.10;;;15.50;93.30;;;;;;4994581;28;20022;-68
2022/05/30 06:14:48;;;;;;;9.40;3.53;;;15.60;93.10;;;;;;5000034;28;20038;-69
2022/05/30 06:17:14;;;;;;;7.60;3.30;;;15.60;92.90;;;;;;5005149;28;20025;-69
2022/05/30 06:19:39;;;;;;;8.30;3.13;;;15.60;93.10;;;;;;4991628;28;20038;-68
2022/05/30 06:22:06;;;;;;;6.70;3.33;;;15.60;92.90;;;;;;4996240;28;20022;-69
2022/05/30 06:24:31;;;;;;;9.98;3.47;;;15.60;92.80;;;;;;5003587;28;20031;-69
2022/05/30 06:26:57;;;;;;;7.57;3.10;;;15.60;92.80;;;;;;4993620;28;20030;-69
2022/05/30 06:29:22;;;;;;;8.38;3.28;;;15.60;92.60;;;;;;5008611;28;20087;-69
2022/05/30 06:31:48;;;;;;;9.63;3.70;;;15.60;92.40;;;;;;4991124;28;20359;-69
2022/05/30 06:34:13;;;;;;;6.03;3.00;;;15.60;92.10;;;;;;5009836;28;20461;-69
2022/05/30 06:36:40;;;;;;;11.32;3.83;;;15.60;92.10;;;;;;4996974;28;20112;-69
2022/05/30 06:39:06;;;;;;;6.90;3.00;;;15.60;92.10;;;;;;5009560;28;20029;-69
2022/05/30 06:41:32;;;;;;;7.28;3.38;;;15.60;92.10;;;;;;4997735;28;20580;-68
2022/05/30 06:44:04;;;;;;;6.78;3.40;;;15.60;92.00;;;;;;5009344;28;20087;-69
2022/05/30 06:46:31;;;;;;;5.85;3.00;;;15.60;92.20;;;;;;5001848;28;20041;-69
2022/05/30 06:48:57;;;;;;;5.32;2.55;;;15.70;92.10;;;;;;5010629;28;20041;-68
2022/05/30 06:51:24;;;;;;;7.68;4.28;;;15.70;91.90;;;;;;5003310;28;20030;-69
2022/05/30 06:53:51;;;;;;;7.32;3.00;;;15.80;91.70;;;;;;5018877;28;20025;-69
2022/05/30 06:56:20;;;;;;;5.72;2.50;;;15.80;91.50;;;;;;5008357;28;20123;-69
2022/05/30 06:58:50;;;;;;;7.53;3.10;;;15.80;91.50;;;;;;5010055;28;20049;-69
2022/05/30 07:01:16;;;;;;;8.85;4.03;;;15.90;91.60;;;;;;4994631;28;20034;-69
2022/05/30 07:03:44;;;;;;;7.22;3.10;;;16.00;91.50;;;;;;5013041;28;20041;-69
2022/05/30 07:06:11;;;;;;;7.07;3.15;;;16.10;91.40;;;;;;5011549;28;20108;-69
2022/05/30 07:08:37;;;;;;;12.57;3.38;;;16.10;91.20;;;;;;5003650;28;20289;-69
2022/05/30 07:11:04;;;;;;;7.80;3.30;;;16.20;91.10;;;;;;5012107;28;20112;-69
2022/05/30 07:13:30;;;;;;;8.00;3.28;;;16.20;90.80;;;;;;5009341;28;20107;-70
2022/05/30 07:15:56;;;;;;;5.50;3.05;;;16.30;91.00;;;;;;5007609;28;20014;-70
2022/05/30 07:18:22;;;;;;;5.90;2.97;;;16.40;91.00;;;;;;4999958;28;20030;-69
2022/05/30 07:20:55;;;;;;;6.40;2.65;;;16.50;90.70;;;;;;5007068;28;20068;-70
2022/05/30 07:23:20;;;;;;;9.57;2.60;;;16.70;90.40;;;;;;5007667;28;20044;-70
2022/05/30 07:25:45;;;;;;;5.93;2.67;;;16.90;90.20;;;;;;4999569;28;20116;-70
2022/05/30 07:28:12;;;;;;;4.20;2.40;;;17.00;89.80;;;;;;5013331;28;20029;-70
2022/05/30 07:30:38;;;;;;;6.82;3.08;;;17.20;89.20;;;;;;5014401;28;20033;-70
2022/05/30 07:33:04;;;;;;;8.57;2.90;;;17.30;88.70;;;;;;5012220;28;20030;-70
2022/05/30 07:35:29;;;;;;;9.63;2.90;;;17.30;87.80;;;;;;5021292;28;20488;-70
2022/05/30 07:37:55;;;;;;;9.70;2.85;;;17.30;87.60;;;;;;5027691;28;20044;-70
2022/05/30 07:40:20;;;;;;;6.43;2.78;;;17.30;87.40;;;;;;5003596;28;20033;-70
2022/05/30 07:42:48;;;;;;;9.35;3.45;;;17.30;86.60;;;;;;5029037;28;20468;-70
2022/05/30 07:45:13;;;;;;;7.35;3.60;;;17.30;86.10;;;;;;5005161;28;20092;-71
2022/05/30 07:47:39;;;;;;;5.75;2.90;;;17.30;86.20;;;;;;5027715;28;20436;-70
2022/05/30 07:50:06;;;;;;;8.30;3.00;;;17.40;86.20;;;;;;5011268;28;20030;-70
2022/05/30 07:52:32;;;;;;;10.07;3.38;;;17.40;85.80;;;;;;5014356;28;20121;-70
2022/05/30 07:54:58;;;;;;;7.43;3.03;;;17.40;85.90;;;;;;4994603;28;20377;-70
2022/05/30 08:00:11;;;;;;;7.10;2.75;;;17.50;85.70;;;;;;5010355;28;20428;-70
2022/05/30 08:02:38;;;;;;;7.55;3.03;;;17.60;85.80;;;;;;5022427;28;20116;-70
2022/05/30 08:05:05;;;;;;;8.70;3.30;;;17.60;85.10;;;;;;5004524;28;20502;-71
2022/05/30 08:07:30;;;;;;;6.47;3.00;;;17.60;84.80;;;;;;5001531;28;20409;-69
2022/05/30 08:09:56;;;;;;;6.15;3.10;;;17.70;84.50;;;;;;5014797;28;20045;-68
2022/05/30 08:12:22;;;;;;;10.10;3.08;;;17.70;84.30;;;;;;5000490;28;20042;-69
2022/05/30 08:14:47;;;;;;;4.95;3.08;;;17.60;84.10;;;;;;4997268;28;20057;-69
2022/05/30 08:17:13;;;;;;;6.68;3.20;;;17.60;84.00;;;;;;5012962;28;20025;-69
2022/05/30 08:19:40;;;;;;;8.68;3.15;;;17.70;84.00;;;;;;5005290;28;20393;-69
2022/05/30 08:22:08;;;;;;;12.48;5.90;;;17.70;84.00;;;;;;5023199;28;20038;-69
2022/05/30 08:24:36;;;;;;;7.45;3.72;;;17.80;83.80;;;;;;5019115;28;20040;-69
2022/05/30 08:27:03;;;;;;;7.63;3.28;;;17.90;82.80;;;;;;5007118;28;20371;-69
2022/05/30 08:29:29;;;;;;;6.43;3.35;;;17.70;82.00;;;;;;5006640;28;20041;-69
2022/05/30 08:31:55;;;;;;;6.80;3.13;;;17.60;82.70;;;;;;5013466;28;20026;-70
2022/05/30 08:34:20;;;;;;;6.15;3.40;;;17.70;82.60;;;;;;5018729;28;20170;-69
2022/05/30 08:36:46;;;;;;;7.15;3.70;;;17.80;82.70;;;;;;5006494;28;20362;-69
2022/05/30 08:41:57;;;;;;;7.35;3.38;;;18.00;81.50;;;;;;4993988;28;20034;-69
2022/05/30 08:44:23;;;;;;;10.18;3.70;;;18.10;81.40;;;;;;5017133;28;20041;-68
2022/05/30 08:46:57;;;;;;;12.45;3.88;;;18.10;81.40;;;;;;5017417;28;20053;-68
2022/05/30 08:49:42;;;;;;;8.57;4.05;;;18.10;80.80;;;;;;5005548;28;20091;-68
2022/05/30 08:52:25;;;;;;;;;;;18.20;80.80;;;;;;5022981;28;20064;-68
2022/05/30 08:54:58;;;;;;;6.78;3.42;;;18.10;80.90;;;;;;5013791;28;19909;-69
2022/05/30 08:57:48;;;;;;;6.22;3.08;;;18.10;80.50;;;;;;5010022;28;20088;-69
2022/05/30 09:00:26;;;;;;;6.53;3.28;;;18.10;80.20;;;;;;5010551;28;20061;-69
2022/05/30 09:03:05;;;;;;;9.30;3.42;;;18.10;80.10;;;;;;5020886;28;20114;-68
2022/05/30 09:05:39;;;;;;;10.18;3.35;;;18.10;79.70;;;;;;4999243;28;20100;-68
2022/05/30 09:08:09;;;;;;;8.05;3.60;;;18.20;79.90;;;;;;5005057;28;20038;-69
2022/05/30 09:10:40;;;;;;;14.95;6.78;;;18.20;80.00;;;;;;5002359;28;20516;-69
2022/05/30 09:13:21;;;;;;;8.32;3.00;;;18.20;79.80;;;;;;5014721;28;20117;-68
2022/05/30 09:16:17;;;;;;;5.82;2.67;;;18.30;79.00;;;;;;5001694;28;20036;-68
2022/05/30 09:18:52;;;;;;;6.75;2.83;;;18.20;78.20;;;;;;5015757;28;20034;-69
2022/05/30 09:21:19;;;;;;;6.35;2.40;;;18.20;78.30;;;;;;5005421;28;20177;-69
2022/05/30 09:23:46;;;;;;;8.13;2.90;;;18.30;78.20;;;;;;5003993;28;20281;-70
2022/05/30 09:26:18;;;;;;;5.32;2.55;;;18.20;78.00;;;;;;5023063;28;20465;-68
2022/05/30 09:28:46;;;;;;;5.32;2.10;;;18.20;77.90;;;;;;5031368;28;20064;-68
2022/05/30 09:31:20;;;;;;;5.63;2.25;;;18.10;77.40;;;;;;5015821;28;20052;-69
2022/05/30 09:33:49;;;;;;;14.13;3.90;;;18.00;77.50;;;;;;4997511;28;20037;-67
2022/05/30 09:36:19;;;;;;;8.55;3.03;;;18.00;77.80;;;;;;5001568;28;20288;-69
2022/05/30 09:39:02;;;;;;;7.68;2.10;;;18.00;78.00;;;;;;5002121;28;20088;-69
2022/05/30 09:41:38;;;;;;;4.93;2.70;;;18.00;77.40;;;;;;5012925;28;20084;-70
2022/05/30 09:44:12;;;;;;;6.03;2.00;;;18.00;77.20;;;;;;5015924;28;20029;-70
2022/05/30 09:46:42;;;;;;;5.97;2.10;;;18.10;76.80;;;;;;4992475;28;20038;-70
2022/05/30 09:49:16;;;;;;;5.50;2.25;;;18.10;76.10;;;;;;5014090;28;20111;-70
2022/05/30 09:51:48;;;;;;;5.00;2.13;;;18.10;76.10;;;;;;4995883;28;20478;-70
2022/05/30 09:54:23;;;;;;;7.00;2.17;;;18.20;76.10;;;;;;5007854;28;20069;-70
2022/05/30 09:56:49;;;;;;;;;;;18.20;75.80;;;;;;4991636;28;20386;-70
2022/05/30 09:59:41;;;;;;;3.10;1.65;;;18.20;75.40;;;;;;5018295;28;19920;-69
2022/05/30 10:02:21;;;;;;;4.18;1.70;;;18.20;75.20;;;;;;5007691;28;20025;-69
2022/05/30 10:04:58;;;;;;;5.03;1.67;;;18.20;75.30;;;;;;4993893;28;20049;-69
2022/05/30 10:07:24;;;;;;;3.88;1.85;;;18.20;75.60;;;;;;4999677;28;20029;-70
2022/05/30 10:09:57;;;;;;;4.72;1.88;;;18.20;75.70;;;;;;4999574;28;20061;-70
2022/05/30 10:12:36;;;;;;;3.60;1.58;;;18.40;75.30;;;;;;5011637;28;20022;-70
2022/05/30 10:15:23;;;;;;;4.75;1.58;;;18.50;74.50;;;;;;4992230;28;20073;-70
2022/05/30 10:17:49;;;;;;;5.00;1.77;;;18.60;74.60;;;;;;5001887;28;20489;-70
2022/05/30 10:20:23;;;;;;;2.75;1.52;;;18.70;73.80;;;;;;5014680;28;20045;-71
2022/05/30 10:29:45;;;;;;;3.22;1.73;;;19.00;73.10;;;;;;5012871;28;20077;-70
2022/05/30 10:32:32;;;;;;;5.10;1.67;;;19.20;72.70;;;;;;4998395;28;20030;-70
2022/05/30 10:35:13;;;;;;;2.03;1.40;;;19.30;72.50;;;;;;4995312;28;20393;-70
2022/05/30 10:38:04;;;;;;;3.25;1.33;;;19.40;72.20;;;;;;4997207;28;20056;-70
2022/05/30 10:40:56;;;;;;;4.07;1.77;;;19.50;71.50;;;;;;5003669;28;20505;-70
2022/05/30 10:43:34;;;;;;;4.50;1.55;;;19.50;70.90;;;;;;4999372;28;20034;-69
2022/05/30 10:46:03;;;;;;;2.28;1.05;;;19.60;70.30;;;;;;5009188;28;20030;-70
2022/05/30 10:48:33;;;;;;;2.95;1.40;;;19.60;69.40;;;;;;5010299;28;20038;-69
2022/05/30 10:51:05;;;;;;;2.97;1.60;;;19.60;68.80;;;;;;5011609;28;20026;-69
2022/05/30 10:53:41;;;;;;;5.05;1.65;;;19.60;69.10;;;;;;5022048;28;20354;-69
2022/05/30 10:56:19;;;;;;;3.42;1.40;;;19.70;68.40;;;;;;5024755;28;20037;-69
2022/05/30 10:58:58;;;;;;;3.83;1.80;;;19.70;68.70;;;;;;5019194;28;20459;-71
2022/05/30 11:01:45;;;;;;;3.00;1.48;;;19.80;68.50;;;;;;5033149;28;20527;-70
2022/05/30 11:04:18;;;;;;;3.22;1.13;;;19.70;68.00;;;;;;5020533;28;20371;-70
2022/05/30 11:06:47;;;;;;;4.60;1.55;;;19.70;66.80;;;;;;5013921;28;20473;-69
2022/05/30 11:09:28;;;;;;;5.47;2.08;;;19.70;67.30;;;;;;5010958;28;20479;-69
2022/05/30 11:12:14;;;;;;;3.20;1.63;;;19.80;66.50;;;;;;5034837;28;20083;-70
2022/05/30 11:14:59;;;;;;;8.18;1.70;;;19.90;66.80;;;;;;5011777;28;20384;-69
2022/05/30 11:17:32;;;;;;;4.90;1.45;;;19.90;65.40;;;;;;5003319;28;20033;-69
2022/05/30 11:20:16;;;;;;;4.13;1.50;;;19.90;65.70;;;;;;5000379;28;20422;-69
2022/05/30 11:22:46;;;;;;;5.80;1.30;;;19.90;65.10;;;;;;5023100;28;20041;-70
2022/05/30 11:25:16;;;;;;;6.18;1.42;;;19.80;65.10;;;;;;5013176;28;20394;-70
2022/05/30 11:27:51;;;;;;;2.22;1.50;;;19.80;63.90;;;;;;5008309;28;20501;-70
2022/05/30 11:30:23;;;;;;;4.20;1.60;;;19.80;64.90;;;;;;4995945;28;20573;-70
2022/05/30 11:33:15;;;;;;;2.55;1.40;;;19.80;64.80;;;;;;5012834;28;20049;-69
2022/05/30 11:36:19;;;;;;;4.90;1.40;;;19.80;63.60;;;;;;5014391;28;20545;-71
2022/05/30 11:39:16;;;;;;;3.30;1.40;;;19.70;63.40;;;;;;5012664;28;20112;-70
2022/05/30 11:41:59;;;;;;;2.10;1.08;;;19.60;63.30;;;;;;5008024;28;20501;-70
2022/05/30 11:44:59;;;;;;;3.50;1.40;;;19.60;63.10;;;;;;4996641;28;20461;-70
2022/05/30 11:47:34;;;;;;;3.70;1.40;;;19.60;63.60;;;;;;5013249;28;20493;-71
2022/05/30 11:50:11;;;;;;;3.17;1.70;;;19.70;63.90;;;;;;4999116;28;20057;-70
2022/05/30 11:53:05;;;;;;;4.20;1.48;;;19.80;64.10;;;;;;5007130;28;20496;-70
2022/05/30 11:55:45;;;;;;;2.67;1.27;;;19.90;64.30;;;;;;5009241;28;20355;-70
2022/05/30 11:58:41;;;;;;;3.63;1.40;;;19.90;63.70;;;;;;5018673;28;20141;-70
2022/05/30 12:01:08;;;;;;;3.25;1.40;;;19.80;63.90;;;;;;4995982;28;20034;-70
2022/05/30 12:04:06;;;;;;;4.40;1.55;;;19.80;63.80;;;;;;5004327;28;20029;-70
2022/05/30 12:06:54;;;;;;;3.80;2.05;;;19.80;64.20;;;;;;5007018;28;20038;-69
2022/05/30 12:09:40;;;;;;;7.05;2.08;;;19.70;64.10;;;;;;5008356;28;20048;-70
2022/05/30 12:12:39;;;;;;;3.78;1.42;;;19.60;64.60;;;;;;5001642;28;20473;-70
2022/05/30 12:15:30;;;;;;;3.25;1.77;;;19.60;64.60;;;;;;4984919;28;20042;-69
2022/05/30 12:24:08;;;;;;;3.38;1.25;;;19.40;64.90;;;;;;4988970;28;20101;-70
2022/05/30 12:26:46;;;;;;;4.22;2.45;;;19.50;64.70;;;;;;4988306;28;20053;-70
2022/05/30 12:29:29;;;;;;;3.60;1.58;;;19.50;63.90;;;;;;4988391;28;20065;-70
2022/05/30 12:32:16;;;;;;;4.43;2.25;;;19.50;64.20;;;;;;4986219;28;20373;-70
2022/05/30 12:35:10;;;;;;;4.93;2.20;;;19.60;64.30;;;;;;4987263;28;20401;-70
2022/05/30 12:37:43;;;;;;;4.70;2.50;;;19.50;64.40;;;;;;4988552;28;20092;-69
2022/05/30 12:40:26;;;;;;;5.35;2.03;;;19.50;64.70;;;;;;4991099;28;20125;-69
2022/05/30 12:43:19;;;;;;;5.82;2.45;;;19.50;63.30;;;;;;4987793;28;20026;-70
2022/05/30 12:45:56;;;;;;;4.25;1.65;;;19.50;64.10;;;;;;4987680;28;20041;-69
2022/05/30 12:48:43;;;;;;;2.72;1.58;;;19.70;63.90;;;;;;4987776;28;20053;-70
2022/05/30 12:51:08;;;;;;;3.38;1.70;;;19.90;63.70;;;;;;4988313;28;20061;-70
2022/05/30 12:53:59;;;;;;;5.85;2.00;;;19.90;62.70;;;;;;4988030;28;20037;-70
2022/05/30 12:56:48;;;;;;;3.70;1.65;;;19.90;62.00;;;;;;4987549;28;20022;-71
2022/05/30 12:59:18;;;;;;;5.90;2.10;;;19.80;62.80;;;;;;4988426;28;20041;-70
2022/05/30 13:01:44;;;;;;;4.43;1.30;;;19.90;62.90;;;;;;4987041;28;20031;-70
2022/05/30 13:04:29;;;;;;;4.50;2.13;;;20.10;62.70;;;;;;4989810;28;20041;-70
2022/05/30 13:06:57;;;;;;;4.05;1.60;;;20.20;62.60;;;;;;4987038;28;20034;-69
2022/05/30 13:09:25;;;;;;;2.78;1.45;;;20.40;62.50;;;;;;4985843;28;20108;-69
2022/05/30 13:12:09;;;;;;;3.45;1.30;;;20.60;61.90;;;;;;4986676;28;20132;-69
2022/05/30 13:14:51;;;;;;;5.22;1.92;;;20.80;61.90;;;;;;4988294;28;20034;-70
2022/05/30 13:17:19;;;;;;;3.22;1.83;;;21.10;61.60;;;;;;4988400;28;20034;-70
2022/05/30 13:20:00;;;;;;;3.25;1.88;;;21.30;60.90;;;;;;4988390;28;20034;-70
2022/05/30 13:22:34;;;;;;;3.47;1.58;;;21.40;60.40;;;;;;4987926;28;20030;-70
2022/05/30 13:25:00;;;;;;;;;;;21.40;59.20;;;;;;4987824;28;20026;-70
2022/05/30 13:27:27;;;;;;;3.65;1.85;;;21.40;59.40;;;;;;4991082;28;20455;-70
2022/05/30 13:29:53;;;;;;;3.33;1.50;;;21.40;59.40;;;;;;4986627;28;20389;-70
2022/05/30 13:32:21;;;;;;;4.05;1.40;;;21.70;59.20;;;;;;4987569;28;20029;-70